Time;durP1;ratioP1;P1;durP2;ratioP2;P2;SDS_P1;SDS_P2;PMS_P1;PMS_P2;Temp;Humidity;BMP_temperature;BMP_pressure;BME280_temperature;BME280_humidity;BME280_pressure;Samples;Min_cycle;Max_cycle;Signal;HPM_P1;HPM_P2
2023/09/15 00:06:26;;;;;;;11.02;5.68;;;25.70;66.40;;;;;;5053981;22;20076;-80
2023/09/15 00:08:51;;;;;;;8.57;4.68;;;25.80;67.00;;;;;;5113733;28;20039;-80
2023/09/15 00:11:17;;;;;;;12.82;5.55;;;25.80;66.50;;;;;;5115084;28;20142;-80
2023/09/15 00:13:44;;;;;;;11.98;5.85;;;25.80;66.40;;;;;;5115018;28;20519;-83
2023/09/15 00:16:10;;;;;;;10.02;5.10;;;25.80;66.50;;;;;;5114985;28;20351;-79
2023/09/15 00:18:36;;;;;;;12.88;5.88;;;25.80;66.40;;;;;;5114951;28;20031;-79
2023/09/15 00:21:02;;;;;;;9.05;5.57;;;25.80;66.30;;;;;;5115227;28;20084;-81
2023/09/15 00:23:28;;;;;;;12.90;5.95;;;25.80;66.40;;;;;;5114397;28;20039;-80
2023/09/15 00:25:54;;;;;;;9.95;5.45;;;25.80;66.50;;;;;;5114536;28;20044;-81
2023/09/15 00:28:20;;;;;;;10.70;5.85;;;25.80;67.00;;;;;;5114335;28;20032;-81
2023/09/15 00:30:49;;;;;;;10.07;5.38;;;25.80;66.90;;;;;;5114508;28;20073;-81
2023/09/15 00:33:16;;;;;;;9.52;4.72;;;25.80;66.90;;;;;;5118589;28;20038;-80
2023/09/15 00:35:42;;;;;;;11.18;5.65;;;25.80;67.10;;;;;;5120250;28;20487;-80
2023/09/15 00:38:07;;;;;;;10.57;5.57;;;25.80;67.00;;;;;;5118771;28;20051;-80
2023/09/15 00:40:33;;;;;;;16.45;5.78;;;25.80;66.90;;;;;;5114670;28;20028;-80
2023/09/15 00:42:59;;;;;;;11.75;5.50;;;25.80;67.00;;;;;;5114203;28;20040;-81
2023/09/15 00:45:25;;;;;;;10.75;5.65;;;25.80;66.90;;;;;;5114442;28;20024;-79
2023/09/15 00:47:58;;;;;;;11.07;5.65;;;25.80;66.90;;;;;;5113979;28;20035;-79
2023/09/15 00:50:26;;;;;;;10.02;5.72;;;25.80;66.60;;;;;;5114152;28;20047;-80
2023/09/15 00:52:59;;;;;;;9.82;5.40;;;25.80;66.90;;;;;;5114060;28;20081;-79
2023/09/15 00:55:26;;;;;;;10.80;5.80;;;25.80;66.90;;;;;;5114123;28;20030;-81
2023/09/15 00:57:53;;;;;;;10.52;5.72;;;25.80;66.80;;;;;;5114424;28;20024;-81
2023/09/15 01:00:19;;;;;;;10.80;5.40;;;25.80;66.70;;;;;;5095600;28;20040;-80
2023/09/15 01:02:46;;;;;;;11.55;5.65;;;25.70;66.50;;;;;;5113720;28;20069;-80
2023/09/15 01:05:19;;;;;;;9.38;4.95;;;25.70;66.40;;;;;;5114065;28;20110;-79
2023/09/15 01:07:47;;;;;;;7.70;5.55;;;25.70;66.30;;;;;;5113899;28;20394;-79
2023/09/15 01:10:14;;;;;;;9.85;5.50;;;25.70;66.40;;;;;;5114036;28;20040;-79
2023/09/15 01:12:43;;;;;;;9.20;5.50;;;25.70;66.60;;;;;;5110946;28;22086;-80
2023/09/15 01:15:09;;;;;;;10.00;5.53;;;25.70;66.70;;;;;;5113351;28;20433;-79
2023/09/15 01:18:06;;;;;;;11.27;5.47;;;25.70;66.80;;;;;;5113586;28;20031;-78
2023/09/15 01:20:34;;;;;;;10.07;6.15;;;25.70;66.60;;;;;;5113797;28;20031;-79
2023/09/15 01:23:21;;;;;;;11.13;5.82;;;25.70;67.10;;;;;;5113691;28;20100;-79
2023/09/15 01:26:43;;;;;;;11.43;6.63;;;25.60;67.00;;;;;;5113646;28;20027;-79
2023/09/15 01:29:46;;;;;;;11.48;6.20;;;25.60;67.10;;;;;;5031388;28;20067;-80
2023/09/15 01:32:14;;;;;;;14.00;6.63;;;25.60;67.30;;;;;;5114156;28;20047;-80
2023/09/15 01:34:49;;;;;;;13.57;6.57;;;25.60;68.00;;;;;;5114456;28;20062;-79
2023/09/15 01:37:16;;;;;;;12.25;7.07;;;25.50;68.00;;;;;;5113667;28;20085;-79
2023/09/15 01:39:42;;;;;;;11.77;6.15;;;25.50;68.30;;;;;;5113498;28;20032;-79
2023/09/15 01:42:07;;;;;;;10.05;6.35;;;25.40;68.50;;;;;;5113482;28;20043;-79
2023/09/15 01:44:33;;;;;;;13.90;7.10;;;25.40;68.50;;;;;;5112958;28;20490;-76
2023/09/15 01:46:59;;;;;;;11.02;6.00;;;25.40;68.40;;;;;;5113266;28;20042;-79
2023/09/15 01:49:26;;;;;;;9.25;6.25;;;25.40;68.50;;;;;;5112868;28;20035;-79
2023/09/15 01:51:54;;;;;;;12.65;6.57;;;25.30;68.50;;;;;;5094580;28;20443;-80
2023/09/15 01:54:21;;;;;;;10.65;6.75;;;25.30;68.90;;;;;;5112501;28;20051;-79
2023/09/15 01:56:49;;;;;;;10.93;6.60;;;25.20;69.00;;;;;;5113158;28;20099;-79
2023/09/15 01:59:15;;;;;;;13.90;7.32;;;25.20;69.60;;;;;;5112661;28;20085;-78
2023/09/15 02:01:41;;;;;;;11.98;6.78;;;25.20;69.90;;;;;;5113083;28;20509;-78
2023/09/15 02:04:07;;;;;;;13.85;6.93;;;25.20;70.20;;;;;;5112951;28;20028;-79
2023/09/15 02:06:33;;;;;;;11.98;7.38;;;25.10;70.50;;;;;;5112583;28;20019;-79
2023/09/15 02:08:59;;;;;;;13.35;7.38;;;25.10;70.80;;;;;;5112830;28;20070;-79
2023/09/15 02:11:25;;;;;;;11.50;7.20;;;25.10;71.30;;;;;;5112731;28;20032;-78
2023/09/15 02:13:50;;;;;;;13.15;7.75;;;25.00;71.70;;;;;;5113174;28;20032;-79
2023/09/15 02:16:16;;;;;;;16.20;8.07;;;25.00;72.20;;;;;;5113237;28;20071;-79
2023/09/15 02:18:42;;;;;;;10.10;7.40;;;24.90;72.30;;;;;;5112727;28;20349;-79
2023/09/15 02:21:08;;;;;;;13.73;8.00;;;24.80;72.50;;;;;;5113303;28;20032;-79
2023/09/15 02:23:34;;;;;;;12.05;7.70;;;24.80;73.00;;;;;;5113419;28;20036;-79
2023/09/15 02:26:04;;;;;;;11.80;7.32;;;24.70;73.10;;;;;;5114664;28;20452;-76
2023/09/15 02:28:29;;;;;;;12.93;8.25;;;24.70;73.60;;;;;;5129388;28;20028;-77
2023/09/15 02:30:56;;;;;;;11.60;7.38;;;24.70;73.60;;;;;;5119284;28;20036;-79
2023/09/15 02:33:22;;;;;;;12.57;7.80;;;24.60;73.70;;;;;;5094831;28;20458;-79
2023/09/15 02:35:49;;;;;;;11.43;7.70;;;24.60;74.20;;;;;;5112774;28;20032;-79
2023/09/15 02:38:14;;;;;;;13.13;7.78;;;24.50;74.70;;;;;;5112764;28;20043;-79
2023/09/15 02:40:40;;;;;;;9.98;8.00;;;24.50;74.70;;;;;;5112660;28;20032;-80
2023/09/15 02:43:08;;;;;;;11.20;7.90;;;24.50;74.80;;;;;;5112502;28;20035;-79
2023/09/15 02:45:37;;;;;;;11.93;7.72;;;24.50;74.80;;;;;;5112656;28;20061;-79
2023/09/15 02:48:03;;;;;;;12.23;8.02;;;24.60;74.80;;;;;;5112134;28;20039;-78
2023/09/15 02:50:29;;;;;;;12.75;7.63;;;24.50;74.90;;;;;;5112608;28;20482;-78
2023/09/15 02:52:55;;;;;;;13.90;8.40;;;24.60;75.30;;;;;;5112596;28;20169;-79
2023/09/15 02:55:21;;;;;;;11.68;7.32;;;24.60;75.30;;;;;;5094112;28;20488;-78
2023/09/15 02:57:51;;;;;;;12.48;8.30;;;24.50;76.00;;;;;;5112127;28;20023;-78
2023/09/15 03:00:17;;;;;;;13.77;8.65;;;24.50;75.40;;;;;;5112140;28;20495;-79
2023/09/15 03:02:44;;;;;;;15.35;8.13;;;24.50;75.70;;;;;;5112043;28;20035;-79
2023/09/15 03:05:09;;;;;;;13.93;8.35;;;24.50;75.60;;;;;;5112364;28;20031;-78
2023/09/15 03:07:39;;;;;;;12.80;7.85;;;24.50;76.00;;;;;;5115118;28;20047;-78
2023/09/15 03:10:07;;;;;;;12.27;7.20;;;24.40;76.30;;;;;;5115840;28;20055;-79
2023/09/15 03:12:34;;;;;;;14.48;8.10;;;24.40;76.10;;;;;;5116045;28;20494;-79
2023/09/15 03:15:04;;;;;;;15.02;8.23;;;24.40;76.20;;;;;;5116089;28;20047;-79
2023/09/15 03:17:29;;;;;;;12.02;7.88;;;24.40;76.40;;;;;;5116118;28;20031;-78
2023/09/15 03:19:55;;;;;;;16.35;8.88;;;24.50;76.70;;;;;;5115843;28;20407;-79
2023/09/15 03:22:20;;;;;;;11.23;8.57;;;24.40;76.50;;;;;;5115777;28;20560;-79
2023/09/15 03:24:46;;;;;;;13.93;8.32;;;24.50;76.80;;;;;;5115910;28;20058;-79
2023/09/15 03:27:12;;;;;;;9.18;7.60;;;24.40;76.80;;;;;;5115570;28;20028;-81
2023/09/15 03:29:37;;;;;;;12.48;8.13;;;24.40;76.80;;;;;;5115550;28;20039;-79
2023/09/15 03:32:03;;;;;;;11.80;8.30;;;24.50;76.90;;;;;;5116099;28;20522;-78
2023/09/15 03:34:30;;;;;;;13.02;8.20;;;24.40;77.00;;;;;;5115481;28;20035;-79
2023/09/15 03:36:56;;;;;;;11.50;7.60;;;24.40;77.10;;;;;;5115373;28;20020;-81
2023/09/15 03:39:22;;;;;;;12.68;8.50;;;24.30;77.20;;;;;;5117548;28;20154;-78
2023/09/15 03:41:48;;;;;;;11.20;8.27;;;24.30;77.30;;;;;;5116785;28;20050;-78
2023/09/15 03:44:13;;;;;;;13.25;8.65;;;24.30;77.40;;;;;;5116315;28;20472;-79
2023/09/15 03:46:39;;;;;;;14.23;8.65;;;24.30;77.50;;;;;;5115243;28;20114;-79
2023/09/15 03:49:05;;;;;;;13.65;8.15;;;24.30;77.50;;;;;;5114868;28;20047;-78
2023/09/15 03:51:31;;;;;;;13.68;8.35;;;24.40;77.30;;;;;;5115165;28;20027;-78
2023/09/15 03:53:57;;;;;;;13.57;8.77;;;24.40;77.40;;;;;;5114848;28;20040;-79
2023/09/15 03:56:23;;;;;;;11.60;7.90;;;24.40;77.20;;;;;;5114582;28;20110;-79
2023/09/15 03:58:49;;;;;;;11.40;8.00;;;24.40;77.40;;;;;;5114664;28;20430;-79
2023/09/15 04:01:19;;;;;;;14.70;9.25;;;24.30;77.70;;;;;;5114712;28;20038;-80
2023/09/15 04:03:46;;;;;;;14.15;9.02;;;24.30;77.40;;;;;;5114465;28;20032;-79
2023/09/15 04:06:11;;;;;;;14.43;7.95;;;24.30;77.50;;;;;;5096575;28;20509;-80
2023/09/15 04:08:37;;;;;;;14.82;7.97;;;24.40;77.50;;;;;;5096622;28;20047;-79
2023/09/15 04:11:03;;;;;;;12.65;7.90;;;24.40;77.60;;;;;;5114835;28;20019;-80
2023/09/15 04:13:29;;;;;;;14.27;8.02;;;24.40;77.40;;;;;;5114886;28;20083;-80
2023/09/15 04:15:56;;;;;;;11.95;8.13;;;24.40;77.20;;;;;;5114281;28;20035;-79
2023/09/15 04:18:22;;;;;;;14.70;8.13;;;24.40;77.00;;;;;;5114113;28;20028;-79
2023/09/15 04:20:51;;;;;;;10.55;8.18;;;24.40;77.00;;;;;;5102838;28;20027;-75
2023/09/15 04:23:17;;;;;;;12.00;7.57;;;24.30;76.70;;;;;;5127957;28;20032;-79
2023/09/15 04:25:43;;;;;;;10.50;7.05;;;24.30;76.90;;;;;;5115071;28;20058;-79
2023/09/15 04:28:09;;;;;;;13.77;8.15;;;24.30;76.90;;;;;;5114519;28;20411;-79
2023/09/15 04:30:34;;;;;;;18.90;8.73;;;24.30;76.90;;;;;;5096332;28;20440;-79
2023/09/15 04:33:00;;;;;;;14.48;8.63;;;24.30;76.70;;;;;;5114344;28;20027;-79
2023/09/15 04:35:27;;;;;;;17.40;8.80;;;24.40;76.80;;;;;;5114243;28;20027;-80
2023/09/15 04:37:54;;;;;;;13.85;8.25;;;24.30;76.70;;;;;;5114070;28;20036;-80
2023/09/15 04:40:20;;;;;;;19.00;9.52;;;24.30;76.70;;;;;;5114250;28;20066;-79
2023/09/15 04:42:45;;;;;;;11.90;8.00;;;24.30;76.60;;;;;;5114351;28;20028;-79
2023/09/15 04:45:11;;;;;;;16.85;9.43;;;24.20;76.50;;;;;;5113920;28;20039;-79
2023/09/15 04:47:38;;;;;;;18.38;8.70;;;24.20;76.60;;;;;;5113848;28;20027;-79
2023/09/15 04:50:06;;;;;;;14.27;7.88;;;24.20;76.60;;;;;;5114015;28;20043;-79
2023/09/15 04:52:31;;;;;;;15.07;8.27;;;24.30;76.80;;;;;;5095476;28;20403;-79
2023/09/15 04:54:57;;;;;;;11.55;7.60;;;24.30;76.60;;;;;;5114004;28;20046;-80
2023/09/15 04:57:24;;;;;;;13.85;9.18;;;24.20;76.60;;;;;;5113804;28;20055;-79
2023/09/15 04:59:53;;;;;;;13.00;8.40;;;24.20;76.50;;;;;;5113986;28;20032;-79
2023/09/15 05:02:26;;;;;;;14.15;9.07;;;24.30;76.40;;;;;;5114571;28;20031;-79
2023/09/15 05:04:54;;;;;;;14.07;9.15;;;24.30;77.60;;;;;;5114394;28;20113;-79
2023/09/15 05:07:20;;;;;;;13.35;9.07;;;24.40;76.30;;;;;;5113578;28;20131;-80
2023/09/15 05:09:46;;;;;;;14.65;9.00;;;24.40;76.30;;;;;;5113629;28;20118;-79
2023/09/15 05:12:14;;;;;;;12.80;8.57;;;24.40;76.20;;;;;;5113995;28;20424;-79
2023/09/15 05:14:39;;;;;;;15.02;8.85;;;24.40;76.00;;;;;;5113532;28;20063;-79
2023/09/15 05:17:05;;;;;;;13.57;8.88;;;24.40;76.00;;;;;;5113252;28;20024;-78
2023/09/15 05:19:31;;;;;;;12.85;8.35;;;24.40;76.20;;;;;;5095143;28;20039;-81
2023/09/15 05:21:57;;;;;;;14.15;8.60;;;24.30;76.50;;;;;;5113513;28;20020;-80
2023/09/15 05:24:22;;;;;;;16.20;8.70;;;24.30;76.60;;;;;;5113646;28;20043;-81
2023/09/15 05:26:48;;;;;;;14.57;8.63;;;24.30;76.90;;;;;;5113306;28;20536;-80
2023/09/15 05:29:14;;;;;;;13.65;8.45;;;24.20;76.80;;;;;;5094403;28;20042;-80
2023/09/15 05:31:39;;;;;;;12.88;8.65;;;24.20;76.80;;;;;;5095665;28;20027;-79
2023/09/15 05:34:05;;;;;;;11.07;8.02;;;24.20;77.00;;;;;;5113785;28;20096;-81
2023/09/15 05:36:32;;;;;;;18.35;9.85;;;24.30;77.30;;;;;;5113774;28;20035;-80
2023/09/15 05:38:57;;;;;;;15.23;9.10;;;24.30;76.90;;;;;;5095151;28;20028;-81
2023/09/15 05:41:23;;;;;;;12.50;8.80;;;24.30;77.10;;;;;;5113255;28;20124;-81
2023/09/15 05:43:49;;;;;;;14.93;8.88;;;24.30;77.00;;;;;;5113035;28;20520;-81
2023/09/15 05:46:14;;;;;;;17.60;9.15;;;24.40;77.00;;;;;;5112900;28;20096;-81
2023/09/15 05:48:40;;;;;;;13.75;7.32;;;24.40;76.80;;;;;;5113181;28;20043;-81
2023/09/15 05:51:07;;;;;;;15.20;9.20;;;24.40;76.80;;;;;;5112674;28;20050;-81
2023/09/15 05:53:33;;;;;;;12.48;9.27;;;24.40;76.70;;;;;;5112826;28;20184;-82
2023/09/15 05:55:59;;;;;;;16.13;8.73;;;24.40;76.70;;;;;;5112758;28;20108;-80
2023/09/15 05:58:24;;;;;;;16.27;9.50;;;24.40;77.10;;;;;;5112446;28;20028;-80
2023/09/15 06:00:54;;;;;;;15.52;9.38;;;24.40;77.00;;;;;;5112390;28;20032;-82
2023/09/15 06:03:20;;;;;;;14.68;8.85;;;24.40;77.00;;;;;;5112415;28;20062;-81
2023/09/15 06:05:46;;;;;;;14.60;8.65;;;24.50;76.90;;;;;;5112563;28;20035;-80
2023/09/15 06:08:11;;;;;;;12.55;8.15;;;24.40;76.90;;;;;;5112841;28;20044;-82
2023/09/15 06:10:39;;;;;;;19.65;9.20;;;24.40;76.80;;;;;;5112921;28;20046;-81
2023/09/15 06:13:06;;;;;;;13.70;8.60;;;24.50;76.90;;;;;;5112921;28;20027;-82
2023/09/15 06:15:33;;;;;;;14.52;8.82;;;24.50;77.50;;;;;;5114514;28;20455;-82
2023/09/15 06:18:00;;;;;;;12.80;8.85;;;24.50;76.70;;;;;;5123195;28;20035;-80
2023/09/15 06:20:26;;;;;;;13.98;8.93;;;24.60;76.80;;;;;;5129358;28;20028;-82
2023/09/15 06:22:52;;;;;;;14.70;9.32;;;24.70;76.70;;;;;;5113053;28;20032;-79
2023/09/15 06:25:18;;;;;;;13.98;9.38;;;24.70;76.50;;;;;;5113023;28;20089;-81
2023/09/15 06:27:43;;;;;;;18.30;8.50;;;24.70;76.50;;;;;;5094714;28;20042;-80
2023/09/15 06:30:09;;;;;;;17.55;9.13;;;24.80;76.20;;;;;;5111779;28;20039;-80
2023/09/15 06:32:35;;;;;;;15.70;9.27;;;24.90;76.20;;;;;;5112240;28;20449;-81
2023/09/15 06:35:01;;;;;;;20.02;8.82;;;25.00;76.00;;;;;;5093738;28;20038;-80
2023/09/15 06:37:26;;;;;;;21.58;9.90;;;25.10;75.90;;;;;;5112480;28;20077;-80
2023/09/15 06:39:52;;;;;;;24.60;9.38;;;25.30;75.50;;;;;;5112685;28;20051;-80
2023/09/15 06:42:18;;;;;;;14.07;8.80;;;25.50;75.20;;;;;;5115583;28;20047;-81
2023/09/15 06:44:44;;;;;;;16.80;8.77;;;25.90;74.60;;;;;;5116246;28;20407;-81
2023/09/15 06:47:09;;;;;;;17.20;8.40;;;26.30;73.70;;;;;;5097380;28;20047;-80
2023/09/15 06:49:35;;;;;;;13.70;7.68;;;26.50;72.80;;;;;;5115800;28;20035;-81
2023/09/15 06:52:01;;;;;;;12.82;8.07;;;26.50;72.40;;;;;;5115777;28;20024;-80
2023/09/15 06:54:26;;;;;;;14.32;8.15;;;26.70;72.20;;;;;;5115790;28;20035;-80
2023/09/15 06:56:52;;;;;;;14.68;9.02;;;26.80;72.00;;;;;;5116029;28;20063;-79
2023/09/15 06:59:18;;;;;;;19.50;9.25;;;27.00;71.40;;;;;;5116291;28;20039;-79
2023/09/15 07:01:44;;;;;;;15.20;8.35;;;27.10;70.90;;;;;;5097624;28;20032;-81
2023/09/15 07:04:12;;;;;;;15.02;7.93;;;27.30;70.70;;;;;;5115666;28;20108;-81
2023/09/15 07:06:41;;;;;;;17.33;7.40;;;27.60;70.20;;;;;;5115433;28;20067;-79
2023/09/15 07:09:07;;;;;;;16.80;8.30;;;27.80;69.10;;;;;;5115692;28;20127;-80
2023/09/15 07:11:33;;;;;;;15.55;7.10;;;28.00;69.00;;;;;;5115463;28;20039;-80
2023/09/15 07:13:58;;;;;;;14.88;8.50;;;28.10;69.30;;;;;;5115183;28;20463;-80
2023/09/15 07:16:24;;;;;;;11.80;7.88;;;28.10;68.40;;;;;;5115743;28;20478;-81
2023/09/15 07:18:50;;;;;;;17.88;7.70;;;28.20;68.10;;;;;;5116819;28;20031;-79
2023/09/15 07:21:16;;;;;;;11.07;7.60;;;28.30;67.80;;;;;;5121233;28;20046;-79
2023/09/15 07:23:42;;;;;;;17.75;8.35;;;28.40;67.50;;;;;;5115416;28;20035;-79
2023/09/15 07:26:07;;;;;;;15.05;7.80;;;28.30;67.40;;;;;;5115753;28;20024;-79
2023/09/15 07:28:33;;;;;;;17.00;7.90;;;28.20;67.60;;;;;;5115374;28;20390;-81
2023/09/15 07:31:06;;;;;;;12.10;7.78;;;28.00;67.70;;;;;;5115537;28;20107;-80
2023/09/15 07:33:33;;;;;;;15.23;8.45;;;27.80;68.10;;;;;;5116071;28;20122;-79
2023/09/15 07:35:59;;;;;;;12.93;8.38;;;27.80;68.50;;;;;;5115682;28;20031;-79
2023/09/15 07:38:25;;;;;;;16.92;7.85;;;27.70;68.50;;;;;;5115511;28;20122;-80
2023/09/15 07:40:51;;;;;;;13.60;7.90;;;27.50;68.50;;;;;;5115423;28;20024;-79
2023/09/15 07:43:17;;;;;;;15.93;8.35;;;27.40;68.50;;;;;;5115424;28;20043;-79
2023/09/15 07:45:42;;;;;;;28.55;8.48;;;27.50;68.40;;;;;;5096998;28;20032;-82
2023/09/15 07:48:08;;;;;;;12.70;8.35;;;27.70;68.40;;;;;;5115222;28;20447;-80
2023/09/15 07:50:34;;;;;;;12.82;8.88;;;27.90;67.90;;;;;;5115794;28;20419;-80
2023/09/15 07:53:00;;;;;;;16.80;8.30;;;27.90;68.00;;;;;;5114458;28;20099;-80
2023/09/15 07:55:25;;;;;;;15.55;7.88;;;28.00;67.70;;;;;;5114826;28;20115;-80
2023/09/15 07:57:51;;;;;;;14.10;8.57;;;28.00;67.50;;;;;;5115144;28;20036;-81
2023/09/15 08:00:17;;;;;;;11.88;7.65;;;28.10;67.20;;;;;;5115377;28;20114;-80
2023/09/15 08:02:42;;;;;;;12.88;7.97;;;28.10;67.20;;;;;;5115105;28;20102;-79
2023/09/15 08:05:09;;;;;;;12.10;7.70;;;28.10;67.00;;;;;;5126704;28;20038;-80
2023/09/15 08:07:34;;;;;;;14.63;7.70;;;28.10;67.20;;;;;;5109421;28;20059;-80
2023/09/15 08:10:00;;;;;;;15.45;8.40;;;28.00;67.10;;;;;;5130107;28;20452;-77
2023/09/15 08:12:27;;;;;;;14.90;7.50;;;27.90;67.40;;;;;;5130683;28;20028;-80
2023/09/15 08:14:53;;;;;;;14.40;7.72;;;27.80;67.30;;;;;;5136908;28;20043;-81
2023/09/15 08:17:18;;;;;;;14.63;7.88;;;27.90;67.40;;;;;;5122817;28;20036;-82
2023/09/15 08:19:44;;;;;;;13.60;7.97;;;28.00;67.20;;;;;;5097071;28;20044;-80
2023/09/15 08:22:10;;;;;;;21.40;8.18;;;28.00;67.30;;;;;;5115136;28;20035;-80
2023/09/15 08:24:37;;;;;;;14.20;7.53;;;28.00;67.00;;;;;;5114424;28;20031;-80
2023/09/15 08:27:03;;;;;;;18.05;8.27;;;28.10;67.00;;;;;;5114748;28;20032;-81
2023/09/15 08:29:29;;;;;;;12.40;7.88;;;28.10;66.90;;;;;;5114202;28;20031;-79
2023/09/15 08:31:55;;;;;;;14.85;8.13;;;28.00;66.90;;;;;;5114422;28;20105;-81
2023/09/15 08:34:20;;;;;;;13.95;7.40;;;27.90;66.90;;;;;;5095906;28;20444;-80
2023/09/15 08:36:46;;;;;;;13.85;7.55;;;27.80;67.10;;;;;;5115223;28;20035;-82
2023/09/15 08:39:12;;;;;;;12.55;7.63;;;27.80;67.10;;;;;;5095811;28;20059;-81
2023/09/15 08:41:52;;;;;;;13.57;7.55;;;27.90;67.10;;;;;;5114292;28;20461;-79
2023/09/15 08:44:20;;;;;;;18.17;8.93;;;28.00;66.90;;;;;;5114526;28;20028;-81
2023/09/15 08:46:48;;;;;;;14.23;8.07;;;28.10;66.60;;;;;;5113815;28;20111;-80
2023/09/15 08:49:14;;;;;;;16.02;7.70;;;28.20;67.10;;;;;;5114264;28;20093;-81
2023/09/15 08:51:43;;;;;;;14.25;7.57;;;28.20;66.30;;;;;;5118264;28;20062;-80
2023/09/15 08:54:10;;;;;;;14.10;7.35;;;28.20;66.20;;;;;;5114035;28;20125;-79
2023/09/15 08:56:36;;;;;;;15.27;7.88;;;28.30;66.10;;;;;;5113745;28;20031;-81
2023/09/15 08:59:03;;;;;;;15.80;7.38;;;28.30;66.00;;;;;;5113718;28;20044;-80
2023/09/15 09:01:30;;;;;;;17.70;8.23;;;28.30;65.90;;;;;;5113492;28;20024;-82
2023/09/15 09:03:56;;;;;;;14.07;7.97;;;28.30;65.80;;;;;;5113553;28;20512;-80
2023/09/15 09:06:24;;;;;;;12.80;7.78;;;28.20;65.90;;;;;;5113262;28;20039;-81
2023/09/15 09:08:50;;;;;;;12.82;7.63;;;28.20;66.00;;;;;;5113418;28;20135;-79
2023/09/15 09:11:15;;;;;;;15.07;7.10;;;28.20;65.80;;;;;;5113539;28;20071;-81
2023/09/15 09:13:49;;;;;;;15.15;6.15;;;28.20;65.10;;;;;;5113737;28;20032;-80
2023/09/15 09:16:15;;;;;;;16.25;5.75;;;28.10;64.40;;;;;;5114093;28;20106;-81
2023/09/15 09:18:41;;;;;;;11.75;5.95;;;28.10;63.90;;;;;;5113694;28;20109;-81
2023/09/15 09:21:07;;;;;;;8.48;5.00;;;28.20;63.40;;;;;;5113377;28;20487;-80
2023/09/15 09:23:32;;;;;;;11.32;5.28;;;28.20;62.70;;;;;;5113362;28;20076;-80
2023/09/15 09:26:11;;;;;;;10.30;5.18;;;28.30;62.50;;;;;;5113529;28;20459;-82
2023/09/15 09:28:36;;;;;;;14.48;6.13;;;28.30;62.50;;;;;;5113401;28;20035;-80
2023/09/15 09:31:02;;;;;;;13.45;5.93;;;28.30;62.10;;;;;;5094831;28;20042;-81
2023/09/15 09:33:28;;;;;;;9.95;5.85;;;28.30;61.70;;;;;;5094667;28;20024;-82
2023/09/15 09:35:54;;;;;;;11.25;5.38;;;28.30;62.30;;;;;;5113053;28;20035;-81
2023/09/15 09:38:19;;;;;;;12.18;5.88;;;28.30;61.60;;;;;;5113280;28;20084;-80
2023/09/15 09:40:45;;;;;;;14.45;6.43;;;28.40;61.40;;;;;;5113066;28;20038;-79
2023/09/15 09:43:15;;;;;;;11.05;5.95;;;28.40;61.20;;;;;;5112947;28;20035;-79
2023/09/15 09:45:41;;;;;;;9.50;4.82;;;28.40;61.20;;;;;;5094440;28;20059;-78
2023/09/15 09:48:07;;;;;;;13.30;5.55;;;28.40;61.20;;;;;;5112687;28;20031;-81
2023/09/15 09:50:34;;;;;;;10.40;5.90;;;28.50;61.10;;;;;;5113061;28;20105;-80
2023/09/15 09:53:07;;;;;;;7.60;5.00;;;28.50;60.70;;;;;;5113473;28;20050;-80
2023/09/15 09:55:33;;;;;;;13.85;5.60;;;28.60;60.30;;;;;;5113186;28;20039;-80
2023/09/15 09:58:05;;;;;;;10.60;5.25;;;28.60;60.00;;;;;;5113135;28;20106;-79
2023/09/15 10:00:33;;;;;;;14.27;5.88;;;28.60;59.80;;;;;;5112729;28;20046;-79
2023/09/15 10:02:59;;;;;;;11.02;5.57;;;28.70;59.50;;;;;;5113261;28;20039;-80
2023/09/15 10:05:26;;;;;;;11.55;5.32;;;28.70;59.80;;;;;;5114137;28;20073;-80
2023/09/15 10:07:52;;;;;;;12.80;4.85;;;28.70;58.90;;;;;;5124914;28;20054;-78
2023/09/15 10:10:19;;;;;;;10.68;4.65;;;28.80;59.00;;;;;;5126143;28;20099;-78
2023/09/15 10:12:45;;;;;;;12.63;5.22;;;28.80;58.50;;;;;;5102191;28;20120;-79
2023/09/15 10:15:11;;;;;;;8.93;4.97;;;28.80;58.40;;;;;;5121832;28;20406;-80
2023/09/15 10:17:37;;;;;;;10.30;5.80;;;28.90;58.90;;;;;;5120289;28;20107;-79
2023/09/15 10:20:04;;;;;;;10.15;5.25;;;28.90;57.90;;;;;;5120232;28;20031;-81
2023/09/15 10:22:31;;;;;;;15.27;5.90;;;29.00;57.90;;;;;;5120580;28;20027;-80
2023/09/15 10:24:58;;;;;;;10.60;5.22;;;29.00;57.70;;;;;;5120174;28;20110;-79
2023/09/15 10:27:27;;;;;;;11.50;5.05;;;29.10;57.40;;;;;;5101495;28;20566;-80
2023/09/15 10:29:52;;;;;;;9.70;5.28;;;29.20;57.40;;;;;;5119514;28;20522;-82
2023/09/15 10:32:19;;;;;;;12.18;5.28;;;29.20;57.10;;;;;;5119762;28;20028;-81
2023/09/15 10:34:48;;;;;;;10.52;5.68;;;29.20;56.90;;;;;;5119730;28;20043;-81
2023/09/15 10:37:14;;;;;;;12.27;5.43;;;29.30;56.50;;;;;;5119599;28;20073;-81
2023/09/15 10:39:41;;;;;;;12.57;5.18;;;29.30;56.30;;;;;;5119639;28;20487;-81
2023/09/15 10:42:14;;;;;;;10.27;5.22;;;29.40;56.40;;;;;;5119369;28;20383;-80
2023/09/15 10:44:44;;;;;;;10.30;4.88;;;29.40;55.90;;;;;;5119339;28;20035;-80
2023/09/15 10:47:17;;;;;;;13.23;5.05;;;29.50;55.70;;;;;;5119540;28;20058;-80
2023/09/15 10:49:50;;;;;;;12.15;4.97;;;29.60;55.40;;;;;;5119744;28;20043;-80
2023/09/15 10:52:16;;;;;;;13.10;4.80;;;29.60;55.40;;;;;;5119753;28;20617;-80
2023/09/15 10:54:41;;;;;;;10.48;5.45;;;29.70;55.20;;;;;;5119130;28;20054;-79
2023/09/15 10:57:08;;;;;;;11.73;5.07;;;29.80;54.80;;;;;;5119264;28;20024;-78
2023/09/15 10:59:35;;;;;;;9.15;4.32;;;29.90;54.80;;;;;;5100669;28;20138;-80
2023/09/15 11:02:02;;;;;;;13.60;5.50;;;30.10;54.40;;;;;;5119225;28;20093;-80
2023/09/15 11:04:29;;;;;;;8.88;4.80;;;30.20;53.80;;;;;;5119464;28;20157;-81
2023/09/15 11:06:55;;;;;;;7.80;4.45;;;30.30;53.70;;;;;;5119038;28;20387;-80
2023/09/15 11:09:21;;;;;;;9.13;5.32;;;30.40;53.40;;;;;;5118913;28;20509;-80
2023/09/15 11:11:49;;;;;;;14.30;4.57;;;30.50;53.40;;;;;;5119257;28;20034;-81
2023/09/15 11:14:16;;;;;;;11.52;5.20;;;30.60;53.20;;;;;;5119458;28;20130;-80
2023/09/15 11:16:44;;;;;;;11.57;5.45;;;30.60;53.10;;;;;;5119145;28;20426;-80
2023/09/15 11:19:12;;;;;;;10.38;5.03;;;30.60;53.00;;;;;;5119309;28;20486;-79
2023/09/15 11:21:40;;;;;;;10.55;5.60;;;30.70;53.00;;;;;;5119131;28;20039;-79
2023/09/15 11:24:10;;;;;;;9.23;5.10;;;30.70;52.70;;;;;;5121544;28;20032;-80
2023/09/15 11:26:43;;;;;;;9.68;4.88;;;30.80;52.30;;;;;;5101160;28;20494;-80
2023/09/15 11:29:09;;;;;;;8.82;4.57;;;30.70;52.50;;;;;;5115962;28;20058;-79
2023/09/15 11:31:37;;;;;;;11.90;5.28;;;30.60;52.40;;;;;;5115837;28;20467;-81
2023/09/15 11:34:05;;;;;;;10.18;5.25;;;30.60;52.60;;;;;;5116076;28;20394;-81
2023/09/15 11:36:35;;;;;;;9.65;5.07;;;30.70;52.40;;;;;;5115713;28;20043;-78
2023/09/15 11:39:12;;;;;;;14.48;5.55;;;30.70;52.40;;;;;;5115744;28;20066;-80
2023/09/15 11:41:39;;;;;;;10.27;5.32;;;30.90;51.90;;;;;;5115713;28;20038;-78
2023/09/15 11:44:08;;;;;;;12.98;4.78;;;30.90;52.00;;;;;;5115950;28;20032;-81
2023/09/15 11:46:38;;;;;;;12.23;5.47;;;31.00;51.90;;;;;;5115590;28;20426;-79
2023/09/15 11:49:05;;;;;;;10.48;4.72;;;31.10;51.90;;;;;;5097460;28;20126;-79
2023/09/15 11:51:31;;;;;;;10.07;5.40;;;31.20;51.90;;;;;;5115702;28;20375;-80
2023/09/15 11:53:59;;;;;;;9.90;5.43;;;31.30;51.50;;;;;;5115726;28;20035;-80
2023/09/15 11:56:26;;;;;;;9.70;5.32;;;31.40;51.70;;;;;;5116284;28;20144;-81
2023/09/15 11:58:53;;;;;;;11.43;5.15;;;31.40;50.90;;;;;;5116022;28;20031;-81
2023/09/15 12:01:19;;;;;;;11.15;5.22;;;31.30;50.90;;;;;;5116124;28;20032;-80
2023/09/15 12:03:51;;;;;;;11.75;5.03;;;31.20;50.80;;;;;;5121845;28;20032;-80
2023/09/15 12:06:19;;;;;;;14.10;5.93;;;31.30;49.80;;;;;;5130581;28;20028;-82
2023/09/15 12:08:47;;;;;;;11.02;4.63;;;31.20;50.90;;;;;;5127264;28;20050;-80
2023/09/15 12:11:14;;;;;;;8.85;5.00;;;31.20;50.80;;;;;;5121723;28;20114;-80
2023/09/15 12:13:40;;;;;;;11.50;4.85;;;31.20;50.50;;;;;;5124018;28;20448;-80
2023/09/15 12:16:06;;;;;;;9.18;3.72;;;31.30;50.40;;;;;;5117192;28;20042;-80
2023/09/15 12:18:36;;;;;;;7.85;4.13;;;31.30;51.10;;;;;;5115735;28;20414;-80
2023/09/15 12:21:04;;;;;;;12.32;4.40;;;31.40;50.40;;;;;;5114899;28;20491;-79
2023/09/15 12:23:30;;;;;;;8.90;4.30;;;31.40;50.20;;;;;;5114954;28;20054;-80
2023/09/15 12:25:55;;;;;;;10.70;5.05;;;31.50;50.00;;;;;;5114681;28;20032;-80
2023/09/15 12:28:22;;;;;;;10.30;4.32;;;31.50;49.60;;;;;;5114795;28;20383;-80
2023/09/15 12:30:48;;;;;;;10.15;4.90;;;31.50;49.80;;;;;;5114721;28;20043;-80
2023/09/15 12:33:19;;;;;;;10.48;4.40;;;31.60;49.80;;;;;;5096363;28;20493;-80
2023/09/15 12:35:49;;;;;;;12.77;4.60;;;31.60;49.60;;;;;;5114521;28;20472;-79
2023/09/15 12:38:19;;;;;;;9.68;4.40;;;31.60;49.70;;;;;;5114238;28;20395;-81
2023/09/15 12:40:45;;;;;;;9.38;4.93;;;31.60;49.20;;;;;;5096643;28;20027;-79
2023/09/15 12:43:11;;;;;;;9.50;4.65;;;31.70;49.30;;;;;;5096348;28;20085;-79